createdAt,value
2018-08-23T00:01:47.326Z,22.20
2018-08-23T00:05:52.152Z,22.20
2018-08-23T00:09:55.928Z,22.10
2018-08-23T00:13:59.637Z,22.10
2018-08-23T00:18:06.275Z,22.10
2018-08-23T00:22:14.152Z,22.10
2018-08-23T00:26:17.909Z,22.10
2018-08-23T00:30:24.856Z,22.00
2018-08-23T00:34:29.948Z,22.00
2018-08-23T00:38:33.616Z,22.00
2018-08-23T00:42:37.352Z,22.00
2018-08-23T00:46:41.089Z,21.90
2018-08-23T00:50:48.283Z,21.90
2018-08-23T00:54:52.116Z,21.90
2018-08-23T00:59:01.966Z,21.90
2018-08-23T01:03:05.708Z,21.80
2018-08-23T01:07:09.473Z,21.80
2018-08-23T01:11:13.205Z,21.80
2018-08-23T01:15:16.857Z,21.70
2018-08-23T01:19:25.651Z,21.70
2018-08-23T01:23:29.452Z,21.60
2018-08-23T01:27:38.220Z,21.60
2018-08-23T01:31:41.928Z,21.60
2018-08-23T01:35:46.963Z,21.50
2018-08-23T01:39:50.601Z,21.50
2018-08-23T01:43:54.351Z,21.50
2018-08-23T01:47:58.135Z,21.40
2018-08-23T01:52:01.843Z,21.40
2018-08-23T01:56:06.048Z,21.40
2018-08-23T02:00:10.449Z,21.30
2018-08-23T02:04:14.216Z,21.30
2018-08-23T02:08:17.916Z,21.30
2018-08-23T02:12:21.853Z,21.20
2018-08-23T02:16:25.569Z,21.20
2018-08-23T02:20:29.326Z,21.10
2018-08-23T02:24:35.921Z,21.10
2018-08-23T02:28:39.705Z,21.10
2018-08-23T02:32:43.386Z,21.00
2018-08-23T02:36:47.085Z,21.00
2018-08-23T02:40:50.812Z,20.90
2018-08-23T02:44:56.175Z,20.80
2018-08-23T02:48:59.866Z,20.80
2018-08-23T02:53:36.057Z,20.70
2018-08-23T02:57:48.622Z,20.70
2018-08-23T03:01:52.451Z,20.60
2018-08-23T03:05:56.116Z,20.60
2018-08-23T03:10:00.148Z,20.50
2018-08-23T03:14:03.952Z,20.50
2018-08-23T03:18:07.662Z,20.40
2018-08-23T03:22:11.417Z,20.40
2018-08-23T03:26:15.230Z,20.30
2018-08-23T03:30:19.675Z,20.30
2018-08-23T03:34:23.388Z,20.30
2018-08-23T03:38:27.157Z,20.20
2018-08-23T03:42:30.830Z,20.20
2018-08-23T03:46:46.368Z,20.20
2018-08-23T03:50:52.459Z,20.00
2018-08-23T03:55:01.429Z,20.00
2018-08-23T03:59:05.251Z,20.00
2018-08-23T04:03:12.359Z,19.90
2018-08-23T04:07:16.776Z,19.90
2018-08-23T04:11:20.861Z,19.80
2018-08-23T04:15:27.570Z,19.80
2018-08-23T04:19:32.560Z,19.70
2018-08-23T04:23:36.248Z,19.60
2018-08-23T04:27:39.978Z,19.50
2018-08-23T04:31:43.756Z,19.50
2018-08-23T04:35:47.468Z,19.40
2018-08-23T04:39:56.555Z,19.40
2018-08-23T04:44:18.512Z,19.40
2018-08-23T04:48:22.189Z,19.30
2018-08-23T04:52:25.889Z,19.20
2018-08-23T04:56:29.837Z,19.20
2018-08-23T05:00:33.607Z,19.20
2018-08-23T05:04:37.344Z,19.20
2018-08-23T05:08:41.002Z,19.20
2018-08-23T05:12:44.693Z,19.10
2018-08-23T05:16:48.392Z,19.10
2018-08-23T05:20:52.088Z,19.10
2018-08-23T05:25:03.904Z,19.10
2018-08-23T05:29:08.713Z,19.10
2018-08-23T05:33:14.354Z,19.20
2018-08-23T05:37:18.176Z,19.20
2018-08-23T05:41:21.900Z,19.20
2018-08-23T05:45:35.329Z,19.20
2018-08-23T05:49:39.137Z,19.20
2018-08-23T05:53:45.186Z,19.30
2018-08-23T05:57:49.098Z,19.30
2018-08-23T06:01:52.857Z,19.40
2018-08-23T06:05:56.875Z,19.50
2018-08-23T06:10:00.578Z,19.60
2018-08-23T06:14:04.292Z,19.70
2018-08-23T06:18:08.121Z,19.70
2018-08-23T06:22:11.925Z,19.80
2018-08-23T06:26:15.644Z,19.90
2018-08-23T06:30:19.441Z,20.00
2018-08-23T06:34:24.192Z,20.10
2018-08-23T06:38:27.926Z,20.20
2018-08-23T06:42:45.809Z,20.40
2018-08-23T06:46:49.655Z,20.50
2018-08-23T06:50:57.495Z,20.60
2018-08-23T06:55:01.509Z,20.80
2018-08-23T06:59:05.323Z,20.90
2018-08-23T07:03:09.068Z,21.00
2018-08-23T07:07:17.813Z,21.20
2018-08-23T07:11:22.085Z,21.50
2018-08-23T07:15:25.913Z,22.00
2018-08-23T07:19:31.053Z,22.90
2018-08-23T07:23:38.784Z,23.50
2018-08-23T07:27:42.661Z,24.50
2018-08-23T07:32:01.917Z,25.50
2018-08-23T07:36:18.676Z,25.60
2018-08-23T07:40:24.406Z,26.30
2018-08-23T07:44:28.096Z,26.60
2018-08-23T07:48:31.849Z,26.70
2018-08-23T07:52:36.597Z,26.70
2018-08-23T07:56:40.308Z,26.80
2018-08-23T08:00:44.503Z,26.70
2018-08-23T08:04:48.192Z,26.50
2018-08-23T08:08:52.788Z,26.20
2018-08-23T08:12:56.457Z,26.00
2018-08-23T08:17:09.253Z,25.80
2018-08-23T08:21:17.010Z,25.70
2018-08-23T08:25:20.805Z,25.50
2018-08-23T08:29:29.838Z,25.40
2018-08-23T08:33:34.132Z,25.30
2018-08-23T08:37:37.896Z,25.20
2018-08-23T08:41:41.549Z,25.10
2018-08-23T08:45:45.224Z,25.00
2018-08-23T08:49:48.900Z,25.00
2018-08-23T08:53:53.507Z,24.90
2018-08-23T08:57:57.194Z,25.00
2018-08-23T09:02:00.990Z,25.00
2018-08-23T09:06:06.573Z,25.10
2018-08-23T09:10:10.283Z,25.10
2018-08-23T09:14:14.098Z,25.10
2018-08-23T09:18:23.214Z,25.20
2018-08-23T09:22:26.896Z,25.20
2018-08-23T09:26:35.949Z,25.30
2018-08-23T09:30:39.803Z,25.40
2018-08-23T09:34:43.623Z,25.50
2018-08-23T09:38:47.336Z,25.70
2018-08-23T09:42:51.050Z,25.80
2018-08-23T09:46:59.575Z,25.80
2018-08-23T09:51:16.646Z,25.80
2018-08-23T09:55:21.412Z,25.80
2018-08-23T09:59:25.589Z,25.80
2018-08-23T10:03:35.189Z,25.80
2018-08-23T10:07:43.980Z,25.90
2018-08-23T10:11:53.016Z,26.00
2018-08-23T10:16:02.086Z,26.10
2018-08-23T10:20:11.162Z,26.20
2018-08-23T10:24:20.112Z,26.20
2018-08-23T10:28:55.658Z,26.20
2018-08-23T10:32:59.329Z,26.20
2018-08-23T10:37:03.028Z,26.20
2018-08-23T10:41:06.720Z,26.30
2018-08-23T10:45:10.425Z,26.30
2018-08-23T10:49:14.067Z,26.40
2018-08-23T10:53:18.264Z,26.40
2018-08-23T10:57:21.943Z,26.50
2018-08-23T11:01:25.625Z,26.50
2018-08-23T11:05:29.324Z,26.50
2018-08-23T11:09:38.326Z,26.50
2018-08-23T11:13:46.187Z,26.50
2018-08-23T11:17:55.243Z,26.60
2018-08-23T11:21:58.952Z,26.70
2018-08-23T11:26:02.804Z,26.70
2018-08-23T11:30:06.532Z,26.60
2018-08-23T11:34:10.237Z,26.70
2018-08-23T11:38:13.978Z,26.70
2018-08-23T11:42:17.701Z,26.70
2018-08-23T11:46:22.433Z,26.80
2018-08-23T11:50:26.133Z,26.80
2018-08-23T11:54:29.848Z,26.90
2018-08-23T11:58:33.650Z,26.90
2018-08-23T12:02:37.457Z,27.00
2018-08-23T12:06:41.195Z,27.10
2018-08-23T12:10:44.908Z,27.20
2018-08-23T12:14:52.871Z,27.40
2018-08-23T12:18:56.646Z,27.50
2018-08-23T12:23:00.390Z,27.60
2018-08-23T12:27:04.154Z,27.60
2018-08-23T12:31:07.985Z,27.70
2018-08-23T12:35:11.718Z,27.70
2018-08-23T12:39:20.799Z,27.80
2018-08-23T12:43:56.484Z,27.80
2018-08-23T12:48:00.310Z,27.80
2018-08-23T12:52:04.038Z,27.80
2018-08-23T12:56:07.814Z,27.80
2018-08-23T13:00:11.537Z,27.80
2018-08-23T13:04:15.384Z,28.00
2018-08-23T13:08:19.138Z,28.20
2018-08-23T13:12:22.877Z,28.40
2018-08-23T13:16:26.585Z,28.50
2018-08-23T13:20:30.327Z,28.70
2018-08-23T13:24:38.249Z,28.80
2018-08-23T13:28:42.019Z,29.00
2018-08-23T13:32:45.800Z,29.00
2018-08-23T13:36:49.590Z,28.90
2018-08-23T13:40:53.242Z,29.00
2018-08-23T13:44:56.984Z,29.10
2018-08-23T13:49:00.797Z,29.00
2018-08-23T13:53:04.540Z,29.10
2018-08-23T13:57:08.313Z,29.20
2018-08-23T14:01:12.069Z,29.20
2018-08-23T14:05:15.912Z,29.30
2018-08-23T14:09:19.642Z,29.30
2018-08-23T14:13:23.378Z,29.30
2018-08-23T14:17:27.617Z,29.30
2018-08-23T14:21:31.327Z,29.30
2018-08-23T14:25:35.144Z,29.30
2018-08-23T14:29:38.954Z,29.30
2018-08-23T14:33:42.648Z,29.30
2018-08-23T14:37:46.397Z,29.30
2018-08-23T14:41:50.214Z,29.40
2018-08-23T14:45:58.177Z,29.50
2018-08-23T14:50:01.912Z,29.50
2018-08-23T14:54:11.532Z,29.60
2018-08-23T14:58:15.263Z,29.60
2018-08-23T15:02:18.997Z,29.60
2018-08-23T15:06:29.080Z,29.50
2018-08-23T15:10:32.832Z,29.50
2018-08-23T15:14:36.667Z,29.50
2018-08-23T15:18:40.341Z,29.40
2018-08-23T15:22:44.076Z,29.40
2018-08-23T15:26:48.442Z,29.40
2018-08-23T15:30:52.012Z,29.40
2018-08-23T15:34:55.887Z,29.50
2018-08-23T15:38:59.601Z,29.40
2018-08-23T15:43:03.321Z,29.30
2018-08-23T15:47:07.133Z,29.20
2018-08-23T15:51:10.873Z,29.20
2018-08-23T15:55:14.726Z,29.30
2018-08-23T15:59:18.466Z,29.30
2018-08-23T16:03:22.162Z,29.20
2018-08-23T16:07:25.927Z,29.20
2018-08-23T16:11:29.720Z,29.20
2018-08-23T16:15:40.152Z,29.20
2018-08-23T16:19:49.038Z,29.20
2018-08-23T16:23:52.727Z,29.30
2018-08-23T16:27:56.478Z,29.30
2018-08-23T16:32:00.282Z,29.20
2018-08-23T16:36:04.016Z,29.20
2018-08-23T16:40:07.745Z,29.20
2018-08-23T16:44:11.651Z,29.20
2018-08-23T16:48:15.350Z,29.10
2018-08-23T16:52:19.072Z,29.10
2018-08-23T16:56:22.820Z,29.10
2018-08-23T17:00:26.625Z,29.00
2018-08-23T17:04:35.576Z,29.00
2018-08-23T17:08:39.248Z,28.90
2018-08-23T17:12:43.004Z,28.80
2018-08-23T17:16:51.980Z,28.70
2018-08-23T17:20:55.681Z,28.60
2018-08-23T17:24:59.380Z,28.50
2018-08-23T17:29:03.124Z,28.50
2018-08-23T17:33:07.046Z,28.40
2018-08-23T17:37:10.808Z,28.30
2018-08-23T17:41:14.533Z,28.30
2018-08-23T17:45:18.263Z,28.20
2018-08-23T17:49:22.030Z,28.10
2018-08-23T17:53:25.715Z,28.00
2018-08-23T17:57:29.420Z,27.90
2018-08-23T18:01:34.041Z,27.80
2018-08-23T18:05:37.769Z,27.70
2018-08-23T18:09:41.454Z,27.70
2018-08-23T18:13:45.177Z,27.50
2018-08-23T18:17:48.978Z,27.40
2018-08-23T18:21:52.752Z,27.30
2018-08-23T18:25:56.516Z,27.20
2018-08-23T18:30:00.197Z,27.00
2018-08-23T18:34:04.380Z,26.90
2018-08-23T18:38:08.172Z,26.70
2018-08-23T18:42:11.889Z,26.60
2018-08-23T18:46:15.581Z,26.40
2018-08-23T18:50:19.311Z,26.40
2018-08-23T18:54:23.095Z,26.30
2018-08-23T18:58:26.889Z,26.10
2018-08-23T19:02:30.616Z,26.00
2018-08-23T19:06:34.351Z,25.90
2018-08-23T19:11:42.021Z,25.80
2018-08-23T19:15:51.157Z,25.70
2018-08-23T19:19:55.057Z,25.50
2018-08-23T19:23:58.806Z,25.40
2018-08-23T19:28:02.553Z,25.30
2018-08-23T19:32:06.295Z,25.20
2018-08-23T19:36:10.218Z,25.00
2018-08-23T19:40:13.945Z,24.90
2018-08-23T19:44:17.657Z,24.80
2018-08-23T19:48:21.393Z,24.80
2018-08-23T19:52:25.117Z,24.60
2018-08-23T19:56:28.822Z,24.60
2018-08-23T20:00:32.561Z,24.50
2018-08-23T20:04:36.394Z,24.40
2018-08-23T20:08:40.152Z,24.30
2018-08-23T20:12:43.856Z,24.20
2018-08-23T20:16:47.520Z,24.10
2018-08-23T20:20:51.202Z,24.00
2018-08-23T20:24:54.943Z,23.90
2018-08-23T20:28:58.676Z,23.80
2018-08-23T20:33:02.376Z,23.70
2018-08-23T20:37:06.151Z,23.60
2018-08-23T20:41:09.905Z,23.50
2018-08-23T20:45:13.844Z,23.40
2018-08-23T20:49:17.555Z,23.30
2018-08-23T20:53:21.248Z,23.10
2018-08-23T20:57:24.909Z,23.10
2018-08-23T21:01:29.124Z,23.00
2018-08-23T21:05:32.829Z,22.90
2018-08-23T21:09:36.566Z,22.80
2018-08-23T21:13:40.264Z,22.70
2018-08-23T21:17:43.953Z,22.60
2018-08-23T21:21:47.634Z,22.60
2018-08-23T21:25:51.365Z,22.40
2018-08-23T21:29:55.107Z,22.40
2018-08-23T21:33:58.795Z,22.30
2018-08-23T21:38:02.457Z,22.20
2018-08-23T21:42:06.234Z,22.10
2018-08-23T21:46:09.929Z,22.10
2018-08-23T21:50:13.662Z,22.00
2018-08-23T21:54:17.351Z,21.90
2018-08-23T21:58:21.030Z,21.90
2018-08-23T22:02:24.732Z,21.80
2018-08-23T22:06:28.509Z,21.70
2018-08-23T22:10:32.212Z,21.70
2018-08-23T22:14:35.907Z,21.70
2018-08-23T22:18:39.664Z,21.60
2018-08-23T22:22:43.343Z,21.60
2018-08-23T22:26:47.223Z,21.60
2018-08-23T22:30:50.800Z,21.50
2018-08-23T22:34:54.615Z,21.50
2018-08-23T22:38:58.268Z,21.50
2018-08-23T22:43:01.962Z,21.40
2018-08-23T22:47:05.818Z,21.40
2018-08-23T22:51:09.532Z,21.30
2018-08-23T22:55:13.287Z,21.30
2018-08-23T22:59:16.949Z,21.30
2018-08-23T23:03:25.832Z,21.20
2018-08-23T23:07:29.530Z,21.20
2018-08-23T23:11:33.303Z,21.20
2018-08-23T23:15:36.997Z,21.10
2018-08-23T23:19:40.687Z,21.10
2018-08-23T23:23:44.394Z,21.10
2018-08-23T23:27:48.141Z,21.00
2018-08-23T23:31:51.837Z,21.00
2018-08-23T23:35:55.572Z,21.00
2018-08-23T23:39:59.234Z,21.00
2018-08-23T23:44:02.924Z,21.00
2018-08-23T23:48:06.644Z,20.90
2018-08-23T23:52:10.433Z,21.00
2018-08-23T23:56:14.175Z,20.90
